sensor_id;sensor_type;location;lat;lon;timestamp;pressure;altitude;pressure_sealevel;temperature;humidity
11038;BME280;5572;49.540;11.932;2023-02-12T00:06:05;97967.41;;;3.56;100.00
11038;BME280;5572;49.540;11.932;2023-02-12T00:08:32;97962.88;;;3.57;100.00
11038;BME280;5572;49.540;11.932;2023-02-12T00:10:59;97981.03;;;3.36;100.00
11038;BME280;5572;49.540;11.932;2023-02-12T00:13:25;97973.00;;;3.42;100.00
11038;BME280;5572;49.540;11.932;2023-02-12T00:15:52;97976.91;;;3.46;100.00
11038;BME280;5572;49.540;11.932;2023-02-12T00:18:18;97963.78;;;3.38;100.00
11038;BME280;5572;49.540;11.932;2023-02-12T00:20:45;97953.50;;;3.29;100.00
11038;BME280;5572;49.540;11.932;2023-02-12T00:23:13;97955.56;;;3.33;100.00
11038;BME280;5572;49.540;11.932;2023-02-12T00:25:41;97969.28;;;3.49;100.00
11038;BME280;5572;49.540;11.932;2023-02-12T00:28:07;97968.47;;;3.49;100.00
11038;BME280;5572;49.540;11.932;2023-02-12T00:30:34;97968.28;;;3.38;100.00
11038;BME280;5572;49.540;11.932;2023-02-12T00:33:01;97972.19;;;3.41;100.00
11038;BME280;5572;49.540;11.932;2023-02-12T00:35:27;97982.44;;;3.44;100.00
11038;BME280;5572;49.540;11.932;2023-02-12T00:37:54;97971.09;;;3.55;100.00
11038;BME280;5572;49.540;11.932;2023-02-12T00:40:22;97985.91;;;3.58;100.00
11038;BME280;5572;49.540;11.932;2023-02-12T00:42:48;97970.47;;;3.60;100.00
11038;BME280;5572;49.540;11.932;2023-02-12T00:45:15;97979.56;;;3.52;100.00
11038;BME280;5572;49.540;11.932;2023-02-12T00:47:42;97977.28;;;3.49;100.00
11038;BME280;5572;49.540;11.932;2023-02-12T00:50:09;97982.66;;;3.49;100.00
11038;BME280;5572;49.540;11.932;2023-02-12T00:52:36;97990.28;;;3.39;100.00
11038;BME280;5572;49.540;11.932;2023-02-12T00:55:03;98005.28;;;3.47;100.00
11038;BME280;5572;49.540;11.932;2023-02-12T00:57:31;98003.00;;;3.44;100.00
11038;BME280;5572;49.540;11.932;2023-02-12T00:59:57;98006.06;;;3.60;100.00
11038;BME280;5572;49.540;11.932;2023-02-12T01:02:24;98017.78;;;3.53;100.00
11038;BME280;5572;49.540;11.932;2023-02-12T01:04:51;98017.78;;;3.53;100.00
11038;BME280;5572;49.540;11.932;2023-02-12T01:07:17;98021.69;;;3.50;100.00
11038;BME280;5572;49.540;11.932;2023-02-12T01:09:44;98030.09;;;3.60;100.00
11038;BME280;5572;49.540;11.932;2023-02-12T01:12:11;98040.38;;;3.63;100.00
11038;BME280;5572;49.540;11.932;2023-02-12T01:14:39;98048.81;;;3.67;100.00
11038;BME280;5572;49.540;11.932;2023-02-12T01:17:06;98048.03;;;3.53;100.00
11038;BME280;5572;49.540;11.932;2023-02-12T01:19:33;98054.56;;;3.64;100.00
11038;BME280;5572;49.540;11.932;2023-02-12T01:21:59;98059.13;;;3.57;100.00
11038;BME280;5572;49.540;11.932;2023-02-12T01:24:26;98055.59;;;3.50;100.00
11038;BME280;5572;49.540;11.932;2023-02-12T01:26:52;98065.91;;;3.46;100.00
11038;BME280;5572;49.540;11.932;2023-02-12T01:29:19;98075.78;;;3.46;100.00
11038;BME280;5572;49.540;11.932;2023-02-12T01:31:47;98081.13;;;3.46;100.00
11038;BME280;5572;49.540;11.932;2023-02-12T01:34:13;98085.22;;;3.42;100.00
11038;BME280;5572;49.540;11.932;2023-02-12T01:36:40;98089.94;;;3.46;100.00
11038;BME280;5572;49.540;11.932;2023-02-12T01:39:07;98089.53;;;3.49;100.00
11038;BME280;5572;49.540;11.932;2023-02-12T01:41:35;98095.13;;;3.48;100.00
11038;BME280;5572;49.540;11.932;2023-02-12T01:44:06;98097.97;;;3.59;100.00
11038;BME280;5572;49.540;11.932;2023-02-12T01:46:32;98122.66;;;3.42;100.00
11038;BME280;5572;49.540;11.932;2023-02-12T01:49:02;98125.31;;;3.48;100.00
11038;BME280;5572;49.540;11.932;2023-02-12T01:51:30;98124.28;;;3.43;100.00
11038;BME280;5572;49.540;11.932;2023-02-12T01:54:02;98134.56;;;3.46;100.00
11038;BME280;5572;49.540;11.932;2023-02-12T01:56:31;98135.59;;;3.38;100.00
11038;BME280;5572;49.540;11.932;2023-02-12T01:58:57;98143.63;;;3.51;100.00
11038;BME280;5572;49.540;11.932;2023-02-12T02:01:26;98140.31;;;3.49;100.00
11038;BME280;5572;49.540;11.932;2023-02-12T02:03:56;98149.38;;;3.42;100.00
11038;BME280;5572;49.540;11.932;2023-02-12T02:06:30;98153.69;;;3.30;100.00
11038;BME280;5572;49.540;11.932;2023-02-12T02:08:57;98155.94;;;3.39;100.00
11038;BME280;5572;49.540;11.932;2023-02-12T02:11:23;98159.03;;;3.43;100.00
11038;BME280;5572;49.540;11.932;2023-02-12T02:14:08;98161.09;;;3.41;100.00
11038;BME280;5572;49.540;11.932;2023-02-12T02:16:58;98171.19;;;3.39;100.00
11038;BME280;5572;49.540;11.932;2023-02-12T02:19:40;98177.09;;;3.35;100.00
11038;BME280;5572;49.540;11.932;2023-02-12T02:22:24;98179.19;;;3.33;100.00
11038;BME280;5572;49.540;11.932;2023-02-12T02:27:58;98185.97;;;3.35;100.00
11038;BME280;5572;49.540;11.932;2023-02-12T02:30:34;98179.78;;;3.22;100.00
11038;BME280;5572;49.540;11.932;2023-02-12T02:33:14;98175.47;;;3.14;100.00
11038;BME280;5572;49.540;11.932;2023-02-12T02:35:50;98176.72;;;3.18;100.00
11038;BME280;5572;49.540;11.932;2023-02-12T02:38:23;98185.16;;;3.28;100.00
11038;BME280;5572;49.540;11.932;2023-02-12T02:40:55;98186.34;;;3.13;100.00
11038;BME280;5572;49.540;11.932;2023-02-12T02:43:28;98183.69;;;3.13;100.00
11038;BME280;5572;49.540;11.932;2023-02-12T02:46:04;98193.34;;;3.27;100.00
11038;BME280;5572;49.540;11.932;2023-02-12T02:48:34;98192.53;;;3.26;100.00
11038;BME280;5572;49.540;11.932;2023-02-12T02:51:05;98196.63;;;3.29;100.00
11038;BME280;5572;49.540;11.932;2023-02-12T02:53:37;98203.84;;;3.28;100.00
11038;BME280;5572;49.540;11.932;2023-02-12T02:56:06;98205.69;;;3.28;100.00
11038;BME280;5572;49.540;11.932;2023-02-12T02:58:36;98205.69;;;3.28;100.00
11038;BME280;5572;49.540;11.932;2023-02-12T03:01:08;98206.69;;;3.27;100.00
11038;BME280;5572;49.540;11.932;2023-02-12T03:03:41;98203.59;;;3.17;100.00
11038;BME280;5572;49.540;11.932;2023-02-12T03:06:12;98198.22;;;2.91;100.00
11038;BME280;5572;49.540;11.932;2023-02-12T03:08:45;98215.22;;;2.83;100.00
11038;BME280;5572;49.540;11.932;2023-02-12T03:11:19;98222.00;;;2.73;100.00
11038;BME280;5572;49.540;11.932;2023-02-12T03:13:53;98225.22;;;2.62;100.00
11038;BME280;5572;49.540;11.932;2023-02-12T03:16:25;98235.22;;;2.53;100.00
11038;BME280;5572;49.540;11.932;2023-02-12T03:18:55;98241.50;;;2.40;100.00
11038;BME280;5572;49.540;11.932;2023-02-12T03:21:29;98249.81;;;2.51;100.00
11038;BME280;5572;49.540;11.932;2023-02-12T03:23:59;98256.22;;;2.63;100.00
11038;BME280;5572;49.540;11.932;2023-02-12T03:26:37;98263.22;;;2.70;100.00
11038;BME280;5572;49.540;11.932;2023-02-12T03:29:06;98259.75;;;2.70;100.00
11038;BME280;5572;49.540;11.932;2023-02-12T03:31:38;98262.41;;;2.70;100.00
11038;BME280;5572;49.540;11.932;2023-02-12T03:34:13;98277.88;;;2.81;100.00
11038;BME280;5572;49.540;11.932;2023-02-12T03:36:46;98279.47;;;2.75;100.00
11038;BME280;5572;49.540;11.932;2023-02-12T03:39:23;98285.03;;;2.80;100.00
11038;BME280;5572;49.540;11.932;2023-02-12T03:41:57;98272.47;;;2.68;100.00
11038;BME280;5572;49.540;11.932;2023-02-12T03:44:36;98287.28;;;2.77;100.00
11038;BME280;5572;49.540;11.932;2023-02-12T03:47:16;98287.72;;;2.80;100.00
11038;BME280;5572;49.540;11.932;2023-02-12T03:49:51;98289.19;;;2.83;100.00
11038;BME280;5572;49.540;11.932;2023-02-12T03:52:18;98292.88;;;2.82;100.00
11038;BME280;5572;49.540;11.932;2023-02-12T03:54:45;98295.50;;;2.75;100.00
11038;BME280;5572;49.540;11.932;2023-02-12T03:57:15;98301.06;;;2.80;100.00
11038;BME280;5572;49.540;11.932;2023-02-12T03:59:43;98297.19;;;2.83;100.00
11038;BME280;5572;49.540;11.932;2023-02-12T04:02:11;98299.91;;;2.89;100.00
11038;BME280;5572;49.540;11.932;2023-02-12T04:04:38;98304.53;;;2.74;100.00
11038;BME280;5572;49.540;11.932;2023-02-12T04:07:05;98306.59;;;2.79;100.00
11038;BME280;5572;49.540;11.932;2023-02-12T04:09:32;98303.72;;;2.74;100.00
11038;BME280;5572;49.540;11.932;2023-02-12T04:15:13;98319.94;;;2.79;100.00
11038;BME280;5572;49.540;11.932;2023-02-12T04:17:50;98330.81;;;2.71;100.00
11038;BME280;5572;49.540;11.932;2023-02-12T04:20:26;98334.09;;;2.73;100.00
11038;BME280;5572;49.540;11.932;2023-02-12T04:23:06;98342.91;;;2.73;100.00
11038;BME280;5572;49.540;11.932;2023-02-12T04:25:44;98337.41;;;2.81;100.00
11038;BME280;5572;49.540;11.932;2023-02-12T04:28:24;98340.72;;;2.83;100.00
11038;BME280;5572;49.540;11.932;2023-02-12T04:30:56;98351.66;;;2.88;100.00
11038;BME280;5572;49.540;11.932;2023-02-12T04:33:28;98356.38;;;2.93;100.00
11038;BME280;5572;49.540;11.932;2023-02-12T04:36:00;98356.78;;;2.90;100.00
11038;BME280;5572;49.540;11.932;2023-02-12T04:38:31;98363.81;;;2.97;100.00
11038;BME280;5572;49.540;11.932;2023-02-12T04:41:02;98362.19;;;3.03;100.00
11038;BME280;5572;49.540;11.932;2023-02-12T04:43:33;98361.34;;;3.02;100.00
11038;BME280;5572;49.540;11.932;2023-02-12T04:46:00;98378.56;;;2.93;100.00
11038;BME280;5572;49.540;11.932;2023-02-12T04:48:28;98382.06;;;2.94;100.00
11038;BME280;5572;49.540;11.932;2023-02-12T04:50:55;98379.22;;;3.02;100.00
11038;BME280;5572;49.540;11.932;2023-02-12T04:53:25;98380.19;;;2.88;100.00
11038;BME280;5572;49.540;11.932;2023-02-12T04:55:57;98377.47;;;2.81;100.00
11038;BME280;5572;49.540;11.932;2023-02-12T04:58:25;98387.38;;;2.87;100.00
11038;BME280;5572;49.540;11.932;2023-02-12T05:00:52;98389.25;;;2.93;100.00
11038;BME280;5572;49.540;11.932;2023-02-12T05:03:19;98392.59;;;3.02;100.00
11038;BME280;5572;49.540;11.932;2023-02-12T05:15:04;98398.56;;;3.04;100.00
11038;BME280;5572;49.540;11.932;2023-02-12T05:17:31;98403.03;;;2.97;100.00
11038;BME280;5572;49.540;11.932;2023-02-12T05:19:59;98403.91;;;3.04;100.00
11038;BME280;5572;49.540;11.932;2023-02-12T05:22:27;98411.31;;;3.08;100.00
11038;BME280;5572;49.540;11.932;2023-02-12T05:24:55;98413.19;;;3.14;100.00
11038;BME280;5572;49.540;11.932;2023-02-12T05:27:22;98407.50;;;3.24;100.00
11038;BME280;5572;49.540;11.932;2023-02-12T05:29:50;98417.72;;;3.20;100.00
11038;BME280;5572;49.540;11.932;2023-02-12T05:32:19;98422.69;;;3.23;100.00
11038;BME280;5572;49.540;11.932;2023-02-12T05:34:47;98424.78;;;3.28;100.00
11038;BME280;5572;49.540;11.932;2023-02-12T05:37:15;98429.66;;;3.18;100.00
11038;BME280;5572;49.540;11.932;2023-02-12T05:39:42;98438.34;;;3.26;100.00
11038;BME280;5572;49.540;11.932;2023-02-12T05:42:11;98414.63;;;2.76;100.00
11038;BME280;5572;49.540;11.932;2023-02-12T05:44:58;98420.44;;;2.59;100.00
11038;BME280;5572;49.540;11.932;2023-02-12T05:47:35;98426.22;;;2.62;100.00
11038;BME280;5572;49.540;11.932;2023-02-12T05:50:03;98448.47;;;2.69;100.00
11038;BME280;5572;49.540;11.932;2023-02-12T05:52:29;98434.22;;;2.90;100.00
11038;BME280;5572;49.540;11.932;2023-02-12T05:54:56;98452.78;;;3.04;100.00
11038;BME280;5572;49.540;11.932;2023-02-12T06:10:40;98469.34;;;3.21;100.00
11038;BME280;5572;49.540;11.932;2023-02-12T06:35:56;98526.28;;;2.94;100.00
11038;BME280;5572;49.540;11.932;2023-02-12T06:38:24;98534.72;;;2.97;100.00
11038;BME280;5572;49.540;11.932;2023-02-12T06:40:52;98510.84;;;2.89;100.00
11038;BME280;5572;49.540;11.932;2023-02-12T06:43:19;98517.63;;;2.92;100.00
11038;BME280;5572;49.540;11.932;2023-02-12T06:45:47;98516.63;;;2.93;100.00
11038;BME280;5572;49.540;11.932;2023-02-12T07:01:14;98528.47;;;2.84;100.00
11038;BME280;5572;49.540;11.932;2023-02-12T07:03:43;98534.38;;;2.79;100.00
11038;BME280;5572;49.540;11.932;2023-02-12T07:06:13;98542.44;;;2.65;100.00
11038;BME280;5572;49.540;11.932;2023-02-12T07:19:36;98586.78;;;3.35;100.00
11038;BME280;5572;49.540;11.932;2023-02-12T07:22:03;98594.66;;;3.43;100.00
11038;BME280;5572;49.540;11.932;2023-02-12T07:24:30;98607.22;;;3.42;100.00
11038;BME280;5572;49.540;11.932;2023-02-12T07:26:57;98613.78;;;3.46;100.00
11038;BME280;5572;49.540;11.932;2023-02-12T07:29:24;98625.88;;;3.63;100.00
11038;BME280;5572;49.540;11.932;2023-02-12T07:31:50;98624.34;;;3.54;100.00
11038;BME280;5572;49.540;11.932;2023-02-12T07:34:17;98621.09;;;3.32;100.00
11038;BME280;5572;49.540;11.932;2023-02-12T07:36:45;98631.47;;;3.20;100.00
11038;BME280;5572;49.540;11.932;2023-02-12T07:39:12;98631.03;;;3.17;100.00
11038;BME280;5572;49.540;11.932;2023-02-12T07:45:32;98633.34;;;3.47;100.00
11038;BME280;5572;49.540;11.932;2023-02-12T07:51:21;98672.13;;;3.91;100.00
11038;BME280;5572;49.540;11.932;2023-02-12T07:53:49;98671.50;;;3.89;100.00
11038;BME280;5572;49.540;11.932;2023-02-12T07:56:18;98682.63;;;3.93;100.00
11038;BME280;5572;49.540;11.932;2023-02-12T07:58:46;98691.31;;;4.01;100.00
11038;BME280;5572;49.540;11.932;2023-02-12T08:01:15;98709.44;;;4.33;100.00
11038;BME280;5572;49.540;11.932;2023-02-12T08:03:42;98708.66;;;4.45;100.00
11038;BME280;5572;49.540;11.932;2023-02-12T08:06:11;98711.28;;;4.73;100.00
11038;BME280;5572;49.540;11.932;2023-02-12T08:08:38;98714.53;;;4.75;100.00
11038;BME280;5572;49.540;11.932;2023-02-12T08:11:07;98729.06;;;4.93;100.00
11038;BME280;5572;49.540;11.932;2023-02-12T08:13:34;98720.81;;;4.95;100.00
11038;BME280;5572;49.540;11.932;2023-02-12T08:16:01;98711.16;;;5.07;100.00
11038;BME280;5572;49.540;11.932;2023-02-12T08:18:32;98707.44;;;5.07;100.00
11038;BME280;5572;49.540;11.932;2023-02-12T08:21:03;98700.25;;;5.08;100.00
11038;BME280;5572;49.540;11.932;2023-02-12T08:23:31;98702.13;;;5.20;100.00
11038;BME280;5572;49.540;11.932;2023-02-12T08:26:07;98696.56;;;5.28;100.00
11038;BME280;5572;49.540;11.932;2023-02-12T08:28:36;98715.56;;;5.46;100.00
11038;BME280;5572;49.540;11.932;2023-02-12T08:31:05;98710.81;;;5.42;100.00
11038;BME280;5572;49.540;11.932;2023-02-12T08:33:33;98684.63;;;5.44;100.00
11038;BME280;5572;49.540;11.932;2023-02-12T08:36:02;98679.03;;;5.45;100.00
11038;BME280;5572;49.540;11.932;2023-02-12T08:38:30;98661.75;;;5.48;100.00
11038;BME280;5572;49.540;11.932;2023-02-12T08:41:00;98640.28;;;5.41;100.00
11038;BME280;5572;49.540;11.932;2023-02-12T08:43:29;98625.44;;;5.26;100.00
11038;BME280;5572;49.540;11.932;2023-02-12T08:46:01;98619.25;;;5.38;100.00
11038;BME280;5572;49.540;11.932;2023-02-12T08:48:29;98626.25;;;5.52;100.00
11038;BME280;5572;49.540;11.932;2023-02-12T08:50:56;98617.38;;;5.65;100.00
11038;BME280;5572;49.540;11.932;2023-02-12T08:53:23;98634.47;;;5.90;100.00
11038;BME280;5572;49.540;11.932;2023-02-12T08:55:50;98629.06;;;6.22;100.00
11038;BME280;5572;49.540;11.932;2023-02-12T09:04:58;98545.56;;;5.73;100.00
11038;BME280;5572;49.540;11.932;2023-02-12T09:07:25;98556.03;;;5.94;100.00
11038;BME280;5572;49.540;11.932;2023-02-12T09:09:51;98554.06;;;6.20;100.00
11038;BME280;5572;49.540;11.932;2023-02-12T09:12:18;98524.91;;;6.30;100.00
11038;BME280;5572;49.540;11.932;2023-02-12T09:14:44;98514.34;;;6.35;100.00
11038;BME280;5572;49.540;11.932;2023-02-12T09:17:11;98519.25;;;6.76;100.00
11038;BME280;5572;49.540;11.932;2023-02-12T09:19:37;98481.78;;;6.56;100.00
11038;BME280;5572;49.540;11.932;2023-02-12T09:22:05;98447.91;;;6.55;100.00
11038;BME280;5572;49.540;11.932;2023-02-12T09:24:32;98443.66;;;6.66;100.00
11038;BME280;5572;49.540;11.932;2023-02-12T09:26:58;98426.50;;;6.67;100.00
11038;BME280;5572;49.540;11.932;2023-02-12T09:29:25;98406.50;;;6.63;100.00
11038;BME280;5572;49.540;11.932;2023-02-12T09:31:51;98405.13;;;7.20;100.00
11038;BME280;5572;49.540;11.932;2023-02-12T09:34:18;98385.19;;;7.46;100.00
11038;BME280;5572;49.540;11.932;2023-02-12T09:36:44;98345.38;;;7.00;100.00
11038;BME280;5572;49.540;11.932;2023-02-12T09:39:12;98319.06;;;6.42;100.00
11038;BME280;5572;49.540;11.932;2023-02-12T09:41:58;98310.41;;;6.82;100.00
11038;BME280;5572;49.540;11.932;2023-02-12T09:44:35;98281.41;;;6.49;100.00
11038;BME280;5572;49.540;11.932;2023-02-12T09:47:11;98299.50;;;6.78;100.00
11038;BME280;5572;49.540;11.932;2023-02-12T09:49:55;98276.50;;;6.99;100.00
11038;BME280;5572;49.540;11.932;2023-02-12T09:52:27;98264.88;;;6.87;100.00
11038;BME280;5572;49.540;11.932;2023-02-12T09:54:55;98272.59;;;7.31;100.00
11038;BME280;5572;49.540;11.932;2023-02-12T09:57:25;98246.16;;;7.28;100.00
11038;BME280;5572;49.540;11.932;2023-02-12T09:59:57;98232.69;;;6.63;100.00
11038;BME280;5572;49.540;11.932;2023-02-12T10:02:25;98223.94;;;7.03;100.00
11038;BME280;5572;49.540;11.932;2023-02-12T10:04:52;98225.50;;;6.93;100.00
11038;BME280;5572;49.540;11.932;2023-02-12T10:07:26;98225.88;;;7.44;100.00
11038;BME280;5572;49.540;11.932;2023-02-12T10:10:12;98210.22;;;7.23;100.00
11038;BME280;5572;49.540;11.932;2023-02-12T10:12:48;98188.97;;;7.21;100.00
11038;BME280;5572;49.540;11.932;2023-02-12T10:15:29;98176.97;;;7.06;100.00
11038;BME280;5572;49.540;11.932;2023-02-12T10:18:10;98169.44;;;7.26;100.00
11038;BME280;5572;49.540;11.932;2023-02-12T10:20:57;98164.78;;;7.44;100.00
11038;BME280;5572;49.540;11.932;2023-02-12T10:23:41;98155.16;;;7.77;100.00
11038;BME280;5572;49.540;11.932;2023-02-12T10:26:18;98132.75;;;7.43;100.00
11038;BME280;5572;49.540;11.932;2023-02-12T10:28:46;98116.75;;;7.59;100.00
11038;BME280;5572;49.540;11.932;2023-02-12T10:31:16;98120.94;;;7.44;100.00
11038;BME280;5572;49.540;11.932;2023-02-12T10:33:47;98102.50;;;7.70;100.00
11038;BME280;5572;49.540;11.932;2023-02-12T10:36:22;98071.59;;;7.84;100.00
11038;BME280;5572;49.540;11.932;2023-02-12T10:38:56;98027.50;;;7.62;100.00
11038;BME280;5572;49.540;11.932;2023-02-12T10:41:27;97999.19;;;7.48;100.00
11038;BME280;5572;49.540;11.932;2023-02-12T10:43:55;97975.78;;;7.71;100.00
11038;BME280;5572;49.540;11.932;2023-02-12T10:46:22;97981.06;;;7.55;100.00
11038;BME280;5572;49.540;11.932;2023-02-12T10:48:52;97955.50;;;7.80;100.00
11038;BME280;5572;49.540;11.932;2023-02-12T10:51:37;97945.59;;;7.69;100.00
11038;BME280;5572;49.540;11.932;2023-02-12T10:54:30;97941.88;;;7.59;100.00
11038;BME280;5572;49.540;11.932;2023-02-12T10:56:59;97943.88;;;8.03;100.00
11038;BME280;5572;49.540;11.932;2023-02-12T10:59:31;97943.09;;;7.91;100.00
11038;BME280;5572;49.540;11.932;2023-02-12T11:01:59;97936.97;;;7.68;100.00
11038;BME280;5572;49.540;11.932;2023-02-12T11:04:28;97936.28;;;8.00;100.00
11038;BME280;5572;49.540;11.932;2023-02-12T11:06:57;97939.28;;;8.03;100.00
11038;BME280;5572;49.540;11.932;2023-02-12T11:09:30;97924.94;;;8.26;100.00
11038;BME280;5572;49.540;11.932;2023-02-12T11:12:01;97917.31;;;7.95;100.00
11038;BME280;5572;49.540;11.932;2023-02-12T11:14:29;97932.50;;;7.73;100.00
11038;BME280;5572;49.540;11.932;2023-02-12T11:16:58;97935.88;;;8.08;100.00
11038;BME280;5572;49.540;11.932;2023-02-12T11:19:29;97931.75;;;7.89;100.00
11038;BME280;5572;49.540;11.932;2023-02-12T11:22:05;97919.00;;;8.12;100.00
11038;BME280;5572;49.540;11.932;2023-02-12T11:24:34;97927.13;;;8.01;100.00
11038;BME280;5572;49.540;11.932;2023-02-12T11:27:21;97917.59;;;7.82;100.00
11038;BME280;5572;49.540;11.932;2023-02-12T11:30:06;97903.50;;;8.03;100.00
11038;BME280;5572;49.540;11.932;2023-02-12T11:32:37;97908.38;;;8.17;100.00
11038;BME280;5572;49.540;11.932;2023-02-12T11:35:05;97910.06;;;7.95;100.00
11038;BME280;5572;49.540;11.932;2023-02-12T11:37:33;97914.81;;;7.77;100.00
11038;BME280;5572;49.540;11.932;2023-02-12T11:40:06;97924.72;;;7.88;100.00
11038;BME280;5572;49.540;11.932;2023-02-12T11:42:46;97916.78;;;7.81;100.00
11038;BME280;5572;49.540;11.932;2023-02-12T11:45:15;97919.91;;;7.90;100.00
11038;BME280;5572;49.540;11.932;2023-02-12T11:47:44;97919.44;;;7.54;100.00
11038;BME280;5572;49.540;11.932;2023-02-12T11:50:21;97912.34;;;7.75;100.00
11038;BME280;5572;49.540;11.932;2023-02-12T11:52:51;97922.44;;;7.68;100.00
11038;BME280;5572;49.540;11.932;2023-02-12T11:55:22;97916.69;;;7.76;100.00
11038;BME280;5572;49.540;11.932;2023-02-12T11:57:52;97923.25;;;7.69;100.00
11038;BME280;5572;49.540;11.932;2023-02-12T12:00:21;97913.28;;;7.69;100.00
11038;BME280;5572;49.540;11.932;2023-02-12T12:02:55;97929.22;;;7.71;100.00
11038;BME280;5572;49.540;11.932;2023-02-12T12:05:28;97928.66;;;7.58;100.00
11038;BME280;5572;49.540;11.932;2023-02-12T12:07:59;97921.16;;;7.60;100.00
11038;BME280;5572;49.540;11.932;2023-02-12T12:10:33;97931.81;;;7.55;100.00
11038;BME280;5572;49.540;11.932;2023-02-12T12:13:09;97930.75;;;7.67;100.00
11038;BME280;5572;49.540;11.932;2023-02-12T12:15:42;97930.38;;;7.75;100.00
11038;BME280;5572;49.540;11.932;2023-02-12T12:18:31;97937.41;;;7.65;100.00
11038;BME280;5572;49.540;11.932;2023-02-12T12:21:22;97932.84;;;7.76;100.00
11038;BME280;5572;49.540;11.932;2023-02-12T12:23:53;97935.75;;;7.75;100.00
11038;BME280;5572;49.540;11.932;2023-02-12T12:26:24;97931.31;;;7.69;100.00
11038;BME280;5572;49.540;11.932;2023-02-12T12:29:00;97936.75;;;7.58;100.00
11038;BME280;5572;49.540;11.932;2023-02-12T12:31:33;97934.81;;;7.69;100.00
11038;BME280;5572;49.540;11.932;2023-02-12T12:34:06;97929.81;;;7.73;100.00
11038;BME280;5572;49.540;11.932;2023-02-12T12:36:58;97937.50;;;7.69;100.00
11038;BME280;5572;49.540;11.932;2023-02-12T12:39:34;97936.44;;;7.82;100.00
11038;BME280;5572;49.540;11.932;2023-02-12T12:42:31;97944.63;;;7.87;100.00
11038;BME280;5572;49.540;11.932;2023-02-12T12:45:18;97979.28;;;7.83;100.00
11038;BME280;5572;49.540;11.932;2023-02-12T12:47:58;97988.03;;;7.90;100.00
11038;BME280;5572;49.540;11.932;2023-02-12T12:50:42;97979.72;;;7.92;100.00
11038;BME280;5572;49.540;11.932;2023-02-12T12:53:25;97998.31;;;7.93;100.00
11038;BME280;5572;49.540;11.932;2023-02-12T12:56:09;98000.06;;;7.99;100.00
11038;BME280;5572;49.540;11.932;2023-02-12T12:58:49;98000.16;;;8.16;100.00
11038;BME280;5572;49.540;11.932;2023-02-12T13:01:37;97995.25;;;8.01;100.00
11038;BME280;5572;49.540;11.932;2023-02-12T13:07:16;98028.41;;;7.90;100.00
11038;BME280;5572;49.540;11.932;2023-02-12T13:09:55;98045.50;;;7.62;100.00
11038;BME280;5572;49.540;11.932;2023-02-12T13:12:42;98051.72;;;7.73;100.00
11038;BME280;5572;49.540;11.932;2023-02-12T13:15:20;98052.41;;;7.92;100.00
11038;BME280;5572;49.540;11.932;2023-02-12T13:17:59;98041.59;;;8.26;100.00
11038;BME280;5572;49.540;11.932;2023-02-12T13:20:35;98053.97;;;8.39;100.00
11038;BME280;5572;49.540;11.932;2023-02-12T13:23:12;98091.50;;;7.83;100.00
11038;BME280;5572;49.540;11.932;2023-02-12T13:25:45;98083.28;;;8.12;100.00
11038;BME280;5572;49.540;11.932;2023-02-12T13:28:21;98093.00;;;8.25;100.00
11038;BME280;5572;49.540;11.932;2023-02-12T13:30:51;98109.16;;;7.79;100.00
11038;BME280;5572;49.540;11.932;2023-02-12T13:33:22;98107.88;;;8.04;100.00
11038;BME280;5572;49.540;11.932;2023-02-12T13:35:55;98108.81;;;7.87;100.00
11038;BME280;5572;49.540;11.932;2023-02-12T13:38:26;98105.41;;;7.91;100.00
11038;BME280;5572;49.540;11.932;2023-02-12T13:40:57;98114.66;;;7.72;100.00
11038;BME280;5572;49.540;11.932;2023-02-12T13:43:38;98114.22;;;7.75;100.00
11038;BME280;5572;49.540;11.932;2023-02-12T13:46:13;98112.69;;;7.68;100.00
11038;BME280;5572;49.540;11.932;2023-02-12T13:48:55;98111.53;;;7.98;100.00
11038;BME280;5572;49.540;11.932;2023-02-12T13:51:32;98127.09;;;7.96;100.00
11038;BME280;5572;49.540;11.932;2023-02-12T13:54:13;98135.50;;;7.88;100.00
11038;BME280;5572;49.540;11.932;2023-02-12T13:56:44;98142.88;;;8.04;100.00
11038;BME280;5572;49.540;11.932;2023-02-12T13:59:48;98130.09;;;8.11;100.00
11038;BME280;5572;49.540;11.932;2023-02-12T14:05:25;98149.44;;;7.97;100.00
11038;BME280;5572;49.540;11.932;2023-02-12T14:07:54;98153.78;;;7.86;100.00
11038;BME280;5572;49.540;11.932;2023-02-12T14:10:24;98151.63;;;7.77;100.00
11038;BME280;5572;49.540;11.932;2023-02-12T14:12:52;98158.88;;;7.65;100.00
11038;BME280;5572;49.540;11.932;2023-02-12T14:15:30;98159.16;;;7.98;100.00
11038;BME280;5572;49.540;11.932;2023-02-12T14:18:27;98158.22;;;7.92;100.00
11038;BME280;5572;49.540;11.932;2023-02-12T14:24:46;98153.88;;;7.80;100.00
11038;BME280;5572;49.540;11.932;2023-02-12T14:27:26;98153.41;;;7.83;100.00
11038;BME280;5572;49.540;11.932;2023-02-12T14:33:10;98162.75;;;7.58;100.00
11038;BME280;5572;49.540;11.932;2023-02-12T14:35:42;98157.81;;;7.43;100.00
11038;BME280;5572;49.540;11.932;2023-02-12T14:41:31;98128.81;;;7.68;100.00
11038;BME280;5572;49.540;11.932;2023-02-12T14:49:52;98118.03;;;7.79;100.00
11038;BME280;5572;49.540;11.932;2023-02-12T14:52:22;98127.06;;;7.62;100.00
11038;BME280;5572;49.540;11.932;2023-02-12T14:54:53;98127.22;;;7.78;100.00
11038;BME280;5572;49.540;11.932;2023-02-12T14:57:25;97983.28;;;7.58;100.00
11038;BME280;5572;49.540;11.932;2023-02-12T14:59:55;97967.88;;;7.42;100.00
11038;BME280;5572;49.540;11.932;2023-02-12T15:02:24;97963.28;;;7.43;100.00
11038;BME280;5572;49.540;11.932;2023-02-12T15:04:53;97968.59;;;7.38;100.00
11038;BME280;5572;49.540;11.932;2023-02-12T15:07:24;97971.34;;;7.54;100.00
11038;BME280;5572;49.540;11.932;2023-02-12T15:09:56;97953.47;;;7.48;100.00
11038;BME280;5572;49.540;11.932;2023-02-12T15:12:29;97958.97;;;7.53;100.00
11038;BME280;5572;49.540;11.932;2023-02-12T15:15:03;97955.91;;;7.61;100.00
11038;BME280;5572;49.540;11.932;2023-02-12T15:17:34;97953.84;;;7.40;100.00
11038;BME280;5572;49.540;11.932;2023-02-12T15:20:06;97956.50;;;7.29;100.00